Kezdőlap
METAR-TAF:

METAR-TAF

Repülőterek :

Dalcahue, Chile

földrajzi szélesség: 42-20-25S, földrajzi hosszúság: 073-42-56W, magasság: 161 m

Jelenlegi meteorológiai megfigyelések

A jelentés 40 perccel ezelõtt készült, 15:00 UTC
Északi szél 5 kt
Hőmérséklet 9°C
Páratartalom 93%
Légköri nyomás 1013 hPa
Látótávolság 10 km, vagy több
Záporok a közelben

METAR: SCPQ 261500Z 01005KT 9999 VCSH NSC 09/08 Q1013

Idő: 11:40 (15:40 UTC)


TAF: hiányzik

Meteorológiai megfigyelések és előrejelzések több, mint 4000 repülőtéren (METAR és TAF jelentéseket).

A térképen piros és sárga pontok jelzik az elérhető meteorológiai állomásokat.

Mozgassa az egeret a pont fölött, hogy megjelenjen az állomás neve.

Azután kattintson az időjárási megfigyelések és előrejelzések megtekintéséhez.

A térkép megváltoztatása: kattintson a fekete keresztel jelölt zöld gombra ráközelítéshez, a vonallal jelölt zöld gombra távolításhoz, vagy a zöld nyilakra a szomszédos térképek eléréséhez.


METAR-TAF: